sensor_id;sensor_type;location;lat;lon;timestamp;P1;durP1;ratioP1;P2;durP2;ratioP2
63112;SDS011;49206;48.020;21.378;2022-12-18T00:00:18;68.85;;;27.80;;
63112;SDS011;49206;48.020;21.378;2022-12-18T00:01:22;61.47;;;28.13;;
63112;SDS011;49206;48.020;21.378;2022-12-18T00:02:27;58.72;;;27.05;;
63112;SDS011;49206;48.020;21.378;2022-12-18T00:03:29;62.63;;;29.77;;
63112;SDS011;49206;48.020;21.378;2022-12-18T00:04:32;60.22;;;27.00;;
63112;SDS011;49206;48.020;21.378;2022-12-18T00:05:35;62.72;;;29.42;;
63112;SDS011;49206;48.020;21.378;2022-12-18T00:06:38;60.47;;;29.17;;
63112;SDS011;49206;48.020;21.378;2022-12-18T00:07:41;61.95;;;29.65;;
63112;SDS011;49206;48.020;21.378;2022-12-18T00:08:44;65.95;;;30.20;;
63112;SDS011;49206;48.020;21.378;2022-12-18T00:09:47;62.03;;;28.58;;
63112;SDS011;49206;48.020;21.378;2022-12-18T00:10:49;65.80;;;29.48;;
63112;SDS011;49206;48.020;21.378;2022-12-18T00:13:16;61.92;;;24.98;;
63112;SDS011;49206;48.020;21.378;2022-12-18T00:14:18;63.35;;;27.42;;
63112;SDS011;49206;48.020;21.378;2022-12-18T00:15:21;64.70;;;30.10;;
63112;SDS011;49206;48.020;21.378;2022-12-18T00:16:24;70.13;;;30.92;;
63112;SDS011;49206;48.020;21.378;2022-12-18T00:17:27;67.43;;;31.45;;
63112;SDS011;49206;48.020;21.378;2022-12-18T00:18:30;64.68;;;30.70;;
63112;SDS011;49206;48.020;21.378;2022-12-18T00:19:33;75.25;;;32.85;;
63112;SDS011;49206;48.020;21.378;2022-12-18T00:20:36;75.32;;;31.27;;
63112;SDS011;49206;48.020;21.378;2022-12-18T00:21:40;69.32;;;30.88;;
63112;SDS011;49206;48.020;21.378;2022-12-18T00:22:43;75.47;;;33.03;;
63112;SDS011;49206;48.020;21.378;2022-12-18T00:23:46;69.05;;;30.98;;
63112;SDS011;49206;48.020;21.378;2022-12-18T00:24:51;73.10;;;32.33;;
63112;SDS011;49206;48.020;21.378;2022-12-18T00:25:53;69.63;;;31.08;;
63112;SDS011;49206;48.020;21.378;2022-12-18T00:26:56;70.07;;;29.35;;
63112;SDS011;49206;48.020;21.378;2022-12-18T00:27:58;66.43;;;29.48;;
63112;SDS011;49206;48.020;21.378;2022-12-18T00:29:03;71.03;;;30.75;;
63112;SDS011;49206;48.020;21.378;2022-12-18T00:30:08;72.15;;;30.95;;
63112;SDS011;49206;48.020;21.378;2022-12-18T00:31:13;73.35;;;31.40;;
63112;SDS011;49206;48.020;21.378;2022-12-18T00:32:17;66.00;;;30.27;;
63112;SDS011;49206;48.020;21.378;2022-12-18T00:33:20;66.47;;;28.35;;
63112;SDS011;49206;48.020;21.378;2022-12-18T00:34:22;69.80;;;29.23;;
63112;SDS011;49206;48.020;21.378;2022-12-18T00:35:26;68.03;;;30.23;;
63112;SDS011;49206;48.020;21.378;2022-12-18T00:36:30;62.20;;;29.20;;
63112;SDS011;49206;48.020;21.378;2022-12-18T00:37:35;58.58;;;29.15;;
63112;SDS011;49206;48.020;21.378;2022-12-18T00:38:39;72.82;;;32.55;;
63112;SDS011;49206;48.020;21.378;2022-12-18T00:39:41;60.17;;;28.38;;
63112;SDS011;49206;48.020;21.378;2022-12-18T00:40:44;73.40;;;31.48;;
63112;SDS011;49206;48.020;21.378;2022-12-18T00:41:46;68.70;;;30.15;;
63112;SDS011;49206;48.020;21.378;2022-12-18T00:43:07;64.45;;;28.67;;
63112;SDS011;49206;48.020;21.378;2022-12-18T00:44:10;69.70;;;30.02;;
63112;SDS011;49206;48.020;21.378;2022-12-18T00:45:14;65.72;;;29.48;;
63112;SDS011;49206;48.020;21.378;2022-12-18T00:46:17;68.13;;;30.15;;
63112;SDS011;49206;48.020;21.378;2022-12-18T00:47:20;69.63;;;30.95;;
63112;SDS011;49206;48.020;21.378;2022-12-18T00:48:23;64.72;;;29.95;;
63112;SDS011;49206;48.020;21.378;2022-12-18T00:49:25;71.78;;;28.35;;
63112;SDS011;49206;48.020;21.378;2022-12-18T00:50:29;71.53;;;31.55;;
63112;SDS011;49206;48.020;21.378;2022-12-18T00:51:33;69.88;;;29.83;;
63112;SDS011;49206;48.020;21.378;2022-12-18T00:52:35;60.45;;;27.15;;
63112;SDS011;49206;48.020;21.378;2022-12-18T00:53:40;68.90;;;30.13;;
63112;SDS011;49206;48.020;21.378;2022-12-18T00:54:43;66.47;;;30.33;;
63112;SDS011;49206;48.020;21.378;2022-12-18T00:55:45;67.45;;;29.27;;
63112;SDS011;49206;48.020;21.378;2022-12-18T00:56:48;72.43;;;30.90;;
63112;SDS011;49206;48.020;21.378;2022-12-18T00:57:51;66.72;;;29.08;;
63112;SDS011;49206;48.020;21.378;2022-12-18T00:58:54;60.35;;;29.67;;
63112;SDS011;49206;48.020;21.378;2022-12-18T00:59:56;65.20;;;28.67;;
63112;SDS011;49206;48.020;21.378;2022-12-18T01:00:59;68.63;;;30.80;;
63112;SDS011;49206;48.020;21.378;2022-12-18T01:02:02;61.67;;;27.20;;
63112;SDS011;49206;48.020;21.378;2022-12-18T01:03:05;60.42;;;29.40;;
63112;SDS011;49206;48.020;21.378;2022-12-18T01:04:08;64.60;;;30.95;;
63112;SDS011;49206;48.020;21.378;2022-12-18T01:05:12;65.80;;;27.85;;
63112;SDS011;49206;48.020;21.378;2022-12-18T01:06:15;67.68;;;29.50;;
63112;SDS011;49206;48.020;21.378;2022-12-18T01:07:18;67.47;;;30.17;;
63112;SDS011;49206;48.020;21.378;2022-12-18T01:08:21;67.95;;;29.30;;
63112;SDS011;49206;48.020;21.378;2022-12-18T01:09:23;63.67;;;30.08;;
63112;SDS011;49206;48.020;21.378;2022-12-18T01:10:26;64.88;;;30.33;;
63112;SDS011;49206;48.020;21.378;2022-12-18T01:11:31;65.25;;;29.08;;
63112;SDS011;49206;48.020;21.378;2022-12-18T01:12:34;67.78;;;30.60;;
63112;SDS011;49206;48.020;21.378;2022-12-18T01:13:37;64.05;;;29.77;;
63112;SDS011;49206;48.020;21.378;2022-12-18T01:14:40;63.20;;;28.60;;
63112;SDS011;49206;48.020;21.378;2022-12-18T01:15:49;61.72;;;29.67;;
63112;SDS011;49206;48.020;21.378;2022-12-18T01:16:52;64.38;;;29.20;;
63112;SDS011;49206;48.020;21.378;2022-12-18T01:18:01;66.72;;;29.35;;
63112;SDS011;49206;48.020;21.378;2022-12-18T01:19:03;61.10;;;27.15;;
63112;SDS011;49206;48.020;21.378;2022-12-18T01:20:06;63.08;;;29.33;;
63112;SDS011;49206;48.020;21.378;2022-12-18T01:22:14;60.10;;;27.15;;
63112;SDS011;49206;48.020;21.378;2022-12-18T01:23:19;69.00;;;28.02;;
63112;SDS011;49206;48.020;21.378;2022-12-18T01:24:21;64.22;;;27.15;;
63112;SDS011;49206;48.020;21.378;2022-12-18T01:25:24;62.60;;;29.08;;
63112;SDS011;49206;48.020;21.378;2022-12-18T01:26:27;61.10;;;30.00;;
63112;SDS011;49206;48.020;21.378;2022-12-18T01:27:33;56.20;;;25.98;;
63112;SDS011;49206;48.020;21.378;2022-12-18T01:28:38;64.05;;;27.80;;
63112;SDS011;49206;48.020;21.378;2022-12-18T01:29:44;67.35;;;29.73;;
63112;SDS011;49206;48.020;21.378;2022-12-18T01:30:47;63.92;;;30.05;;
63112;SDS011;49206;48.020;21.378;2022-12-18T01:31:49;67.90;;;28.20;;
63112;SDS011;49206;48.020;21.378;2022-12-18T01:32:52;70.28;;;29.88;;
63112;SDS011;49206;48.020;21.378;2022-12-18T01:33:55;68.03;;;30.52;;
63112;SDS011;49206;48.020;21.378;2022-12-18T01:34:57;78.63;;;29.70;;
63112;SDS011;49206;48.020;21.378;2022-12-18T01:36:01;67.57;;;29.77;;
63112;SDS011;49206;48.020;21.378;2022-12-18T01:37:04;68.20;;;31.30;;
63112;SDS011;49206;48.020;21.378;2022-12-18T01:38:07;76.25;;;33.22;;
63112;SDS011;49206;48.020;21.378;2022-12-18T01:39:11;74.63;;;31.92;;
63112;SDS011;49206;48.020;21.378;2022-12-18T01:40:16;68.70;;;29.75;;
63112;SDS011;49206;48.020;21.378;2022-12-18T01:41:25;69.68;;;30.85;;
63112;SDS011;49206;48.020;21.378;2022-12-18T01:42:53;63.70;;;28.60;;
63112;SDS011;49206;48.020;21.378;2022-12-18T01:43:57;64.38;;;29.60;;
63112;SDS011;49206;48.020;21.378;2022-12-18T01:46:08;71.28;;;30.95;;
63112;SDS011;49206;48.020;21.378;2022-12-18T01:47:13;79.30;;;32.97;;
63112;SDS011;49206;48.020;21.378;2022-12-18T01:48:20;76.88;;;31.15;;
63112;SDS011;49206;48.020;21.378;2022-12-18T01:49:22;75.15;;;32.92;;
63112;SDS011;49206;48.020;21.378;2022-12-18T01:50:27;67.40;;;31.67;;
63112;SDS011;49206;48.020;21.378;2022-12-18T01:51:34;75.28;;;31.95;;
63112;SDS011;49206;48.020;21.378;2022-12-18T01:52:36;73.55;;;30.30;;
63112;SDS011;49206;48.020;21.378;2022-12-18T01:53:40;76.80;;;32.08;;
63112;SDS011;49206;48.020;21.378;2022-12-18T01:55:48;65.53;;;29.80;;
63112;SDS011;49206;48.020;21.378;2022-12-18T01:56:53;71.32;;;31.65;;
63112;SDS011;49206;48.020;21.378;2022-12-18T01:57:56;69.68;;;30.52;;
63112;SDS011;49206;48.020;21.378;2022-12-18T01:59:03;70.55;;;30.58;;
63112;SDS011;49206;48.020;21.378;2022-12-18T02:00:11;73.85;;;30.92;;
63112;SDS011;49206;48.020;21.378;2022-12-18T02:02:44;70.90;;;28.77;;
63112;SDS011;49206;48.020;21.378;2022-12-18T02:03:50;72.90;;;30.27;;
63112;SDS011;49206;48.020;21.378;2022-12-18T02:04:53;70.75;;;30.27;;
63112;SDS011;49206;48.020;21.378;2022-12-18T02:06:01;71.13;;;32.22;;
63112;SDS011;49206;48.020;21.378;2022-12-18T02:07:13;68.55;;;29.10;;
63112;SDS011;49206;48.020;21.378;2022-12-18T02:08:30;67.38;;;29.70;;
63112;SDS011;49206;48.020;21.378;2022-12-18T02:09:46;68.55;;;28.75;;
63112;SDS011;49206;48.020;21.378;2022-12-18T02:12:19;70.75;;;30.77;;
63112;SDS011;49206;48.020;21.378;2022-12-18T02:13:30;70.97;;;30.25;;
63112;SDS011;49206;48.020;21.378;2022-12-18T02:17:31;70.47;;;31.48;;
63112;SDS011;49206;48.020;21.378;2022-12-18T02:18:41;71.38;;;32.05;;
63112;SDS011;49206;48.020;21.378;2022-12-18T02:28:04;67.57;;;28.83;;
63112;SDS011;49206;48.020;21.378;2022-12-18T02:29:18;71.15;;;30.75;;
63112;SDS011;49206;48.020;21.378;2022-12-18T02:30:24;64.97;;;29.67;;
63112;SDS011;49206;48.020;21.378;2022-12-18T02:31:36;72.97;;;31.55;;
63112;SDS011;49206;48.020;21.378;2022-12-18T02:32:47;72.13;;;30.38;;
63112;SDS011;49206;48.020;21.378;2022-12-18T02:33:53;69.85;;;31.10;;
63112;SDS011;49206;48.020;21.378;2022-12-18T02:35:01;72.80;;;32.83;;
63112;SDS011;49206;48.020;21.378;2022-12-18T02:36:06;69.78;;;32.15;;
63112;SDS011;49206;48.020;21.378;2022-12-18T02:37:12;75.50;;;32.80;;
63112;SDS011;49206;48.020;21.378;2022-12-18T02:38:18;72.90;;;30.58;;
63112;SDS011;49206;48.020;21.378;2022-12-18T02:39:23;79.72;;;33.22;;
63112;SDS011;49206;48.020;21.378;2022-12-18T02:40:36;74.78;;;30.67;;
63112;SDS011;49206;48.020;21.378;2022-12-18T02:41:40;75.28;;;33.53;;
63112;SDS011;49206;48.020;21.378;2022-12-18T02:42:44;70.88;;;31.77;;
63112;SDS011;49206;48.020;21.378;2022-12-18T02:43:53;73.50;;;31.15;;
63112;SDS011;49206;48.020;21.378;2022-12-18T02:45:00;70.13;;;30.17;;
63112;SDS011;49206;48.020;21.378;2022-12-18T02:46:20;68.53;;;30.00;;
63112;SDS011;49206;48.020;21.378;2022-12-18T02:47:29;70.82;;;29.88;;
63112;SDS011;49206;48.020;21.378;2022-12-18T02:48:34;69.13;;;30.85;;
63112;SDS011;49206;48.020;21.378;2022-12-18T02:49:44;74.72;;;33.53;;
63112;SDS011;49206;48.020;21.378;2022-12-18T02:51:05;74.32;;;31.40;;
63112;SDS011;49206;48.020;21.378;2022-12-18T02:53:36;71.85;;;30.85;;
63112;SDS011;49206;48.020;21.378;2022-12-18T02:56:18;71.28;;;29.27;;
63112;SDS011;49206;48.020;21.378;2022-12-18T02:57:29;71.75;;;31.13;;
63112;SDS011;49206;48.020;21.378;2022-12-18T03:02:45;70.85;;;30.73;;
63112;SDS011;49206;48.020;21.378;2022-12-18T03:03:59;68.93;;;31.95;;
63112;SDS011;49206;48.020;21.378;2022-12-18T03:07:39;68.68;;;29.33;;
63112;SDS011;49206;48.020;21.378;2022-12-18T03:08:49;71.78;;;30.67;;
63112;SDS011;49206;48.020;21.378;2022-12-18T03:09:57;69.82;;;27.90;;
63112;SDS011;49206;48.020;21.378;2022-12-18T03:11:05;71.03;;;32.15;;
63112;SDS011;49206;48.020;21.378;2022-12-18T03:13:33;64.75;;;28.55;;
63112;SDS011;49206;48.020;21.378;2022-12-18T03:14:53;70.00;;;30.48;;
63112;SDS011;49206;48.020;21.378;2022-12-18T03:16:00;67.68;;;27.88;;
63112;SDS011;49206;48.020;21.378;2022-12-18T03:17:05;69.88;;;31.75;;
63112;SDS011;49206;48.020;21.378;2022-12-18T03:18:13;71.68;;;31.17;;
63112;SDS011;49206;48.020;21.378;2022-12-18T03:19:22;72.75;;;29.88;;
63112;SDS011;49206;48.020;21.378;2022-12-18T03:20:33;69.60;;;30.50;;
63112;SDS011;49206;48.020;21.378;2022-12-18T03:21:44;80.43;;;29.60;;
63112;SDS011;49206;48.020;21.378;2022-12-18T03:22:52;73.97;;;32.45;;
63112;SDS011;49206;48.020;21.378;2022-12-18T03:23:58;72.60;;;32.22;;
63112;SDS011;49206;48.020;21.378;2022-12-18T03:25:04;71.90;;;30.77;;
63112;SDS011;49206;48.020;21.378;2022-12-18T03:26:12;71.85;;;31.33;;
63112;SDS011;49206;48.020;21.378;2022-12-18T03:27:19;65.80;;;28.88;;
63112;SDS011;49206;48.020;21.378;2022-12-18T03:28:27;71.65;;;29.65;;
63112;SDS011;49206;48.020;21.378;2022-12-18T03:29:43;67.22;;;27.98;;
63112;SDS011;49206;48.020;21.378;2022-12-18T03:30:59;68.95;;;29.60;;
63112;SDS011;49206;48.020;21.378;2022-12-18T03:32:05;73.25;;;32.63;;
63112;SDS011;49206;48.020;21.378;2022-12-18T03:34:42;68.32;;;30.23;;
63112;SDS011;49206;48.020;21.378;2022-12-18T03:35:50;74.72;;;30.38;;
63112;SDS011;49206;48.020;21.378;2022-12-18T03:36:53;69.28;;;30.42;;
63112;SDS011;49206;48.020;21.378;2022-12-18T03:37:57;72.30;;;32.03;;
63112;SDS011;49206;48.020;21.378;2022-12-18T03:39:00;69.85;;;30.85;;
63112;SDS011;49206;48.020;21.378;2022-12-18T03:40:04;74.65;;;31.42;;
63112;SDS011;49206;48.020;21.378;2022-12-18T03:41:19;68.25;;;29.20;;
63112;SDS011;49206;48.020;21.378;2022-12-18T03:42:55;63.38;;;26.70;;
63112;SDS011;49206;48.020;21.378;2022-12-18T03:45:42;68.80;;;29.30;;
63112;SDS011;49206;48.020;21.378;2022-12-18T03:52:01;68.28;;;30.20;;
63112;SDS011;49206;48.020;21.378;2022-12-18T03:54:23;70.68;;;29.58;;
63112;SDS011;49206;48.020;21.378;2022-12-18T03:55:36;67.65;;;29.45;;
63112;SDS011;49206;48.020;21.378;2022-12-18T03:57:47;61.58;;;25.67;;
63112;SDS011;49206;48.020;21.378;2022-12-18T03:58:52;62.22;;;27.95;;
63112;SDS011;49206;48.020;21.378;2022-12-18T04:00:04;63.03;;;28.90;;
63112;SDS011;49206;48.020;21.378;2022-12-18T04:01:57;67.10;;;27.77;;
63112;SDS011;49206;48.020;21.378;2022-12-18T04:02:55;74.38;;;29.45;;
63112;SDS011;49206;48.020;21.378;2022-12-18T04:04:07;67.57;;;28.25;;
63112;SDS011;49206;48.020;21.378;2022-12-18T04:05:13;63.88;;;28.58;;
63112;SDS011;49206;48.020;21.378;2022-12-18T04:06:19;66.60;;;29.75;;
63112;SDS011;49206;48.020;21.378;2022-12-18T04:07:22;73.68;;;31.30;;
63112;SDS011;49206;48.020;21.378;2022-12-18T04:08:26;80.95;;;29.48;;
63112;SDS011;49206;48.020;21.378;2022-12-18T04:09:39;69.93;;;30.88;;
63112;SDS011;49206;48.020;21.378;2022-12-18T04:10:43;72.68;;;32.28;;
63112;SDS011;49206;48.020;21.378;2022-12-18T04:11:46;70.60;;;31.42;;
63112;SDS011;49206;48.020;21.378;2022-12-18T04:12:50;65.30;;;30.30;;
63112;SDS011;49206;48.020;21.378;2022-12-18T04:13:58;69.47;;;29.70;;
63112;SDS011;49206;48.020;21.378;2022-12-18T04:15:00;69.00;;;30.77;;
63112;SDS011;49206;48.020;21.378;2022-12-18T04:16:03;74.63;;;31.77;;
63112;SDS011;49206;48.020;21.378;2022-12-18T04:17:07;77.50;;;31.58;;
63112;SDS011;49206;48.020;21.378;2022-12-18T04:18:09;70.72;;;31.83;;
63112;SDS011;49206;48.020;21.378;2022-12-18T04:19:15;76.28;;;30.70;;
63112;SDS011;49206;48.020;21.378;2022-12-18T04:20:21;76.05;;;31.77;;
63112;SDS011;49206;48.020;21.378;2022-12-18T04:21:24;74.03;;;32.30;;
63112;SDS011;49206;48.020;21.378;2022-12-18T04:22:27;71.15;;;30.67;;
63112;SDS011;49206;48.020;21.378;2022-12-18T04:23:33;79.25;;;32.05;;
63112;SDS011;49206;48.020;21.378;2022-12-18T04:24:36;75.30;;;32.35;;
63112;SDS011;49206;48.020;21.378;2022-12-18T04:25:50;70.05;;;30.70;;
63112;SDS011;49206;48.020;21.378;2022-12-18T04:27:01;73.68;;;32.97;;
63112;SDS011;49206;48.020;21.378;2022-12-18T04:28:08;70.35;;;30.35;;
63112;SDS011;49206;48.020;21.378;2022-12-18T04:29:12;77.15;;;33.88;;
63112;SDS011;49206;48.020;21.378;2022-12-18T04:30:17;70.90;;;31.13;;
63112;SDS011;49206;48.020;21.378;2022-12-18T04:31:19;70.35;;;30.38;;
63112;SDS011;49206;48.020;21.378;2022-12-18T04:32:22;74.35;;;32.05;;
63112;SDS011;49206;48.020;21.378;2022-12-18T04:33:25;76.32;;;32.53;;
63112;SDS011;49206;48.020;21.378;2022-12-18T04:34:29;74.47;;;31.13;;
63112;SDS011;49206;48.020;21.378;2022-12-18T04:35:32;69.32;;;31.55;;
63112;SDS011;49206;48.020;21.378;2022-12-18T04:36:35;79.95;;;31.35;;
63112;SDS011;49206;48.020;21.378;2022-12-18T04:37:38;65.95;;;30.40;;
63112;SDS011;49206;48.020;21.378;2022-12-18T04:38:41;73.93;;;31.35;;
63112;SDS011;49206;48.020;21.378;2022-12-18T04:39:47;73.38;;;30.25;;
63112;SDS011;49206;48.020;21.378;2022-12-18T04:40:57;71.20;;;30.23;;
63112;SDS011;49206;48.020;21.378;2022-12-18T04:42:03;65.35;;;28.67;;
63112;SDS011;49206;48.020;21.378;2022-12-18T04:43:08;73.03;;;30.50;;
63112;SDS011;49206;48.020;21.378;2022-12-18T04:45:15;62.42;;;25.10;;
63112;SDS011;49206;48.020;21.378;2022-12-18T04:46:18;68.60;;;27.02;;
63112;SDS011;49206;48.020;21.378;2022-12-18T04:47:21;51.40;;;25.75;;
63112;SDS011;49206;48.020;21.378;2022-12-18T04:48:23;71.00;;;27.52;;
63112;SDS011;49206;48.020;21.378;2022-12-18T04:49:26;69.60;;;29.13;;
63112;SDS011;49206;48.020;21.378;2022-12-18T04:50:29;66.93;;;28.17;;
63112;SDS011;49206;48.020;21.378;2022-12-18T04:51:31;67.40;;;29.00;;
63112;SDS011;49206;48.020;21.378;2022-12-18T04:52:34;65.88;;;28.52;;
63112;SDS011;49206;48.020;21.378;2022-12-18T04:53:38;64.43;;;27.73;;
63112;SDS011;49206;48.020;21.378;2022-12-18T04:54:41;78.43;;;30.63;;
63112;SDS011;49206;48.020;21.378;2022-12-18T04:55:43;68.97;;;29.67;;
63112;SDS011;49206;48.020;21.378;2022-12-18T04:56:46;70.85;;;27.25;;
63112;SDS011;49206;48.020;21.378;2022-12-18T04:57:49;68.90;;;27.70;;
63112;SDS011;49206;48.020;21.378;2022-12-18T04:58:52;67.25;;;28.00;;
63112;SDS011;49206;48.020;21.378;2022-12-18T04:59:56;71.97;;;28.08;;
63112;SDS011;49206;48.020;21.378;2022-12-18T05:01:00;69.40;;;27.00;;
63112;SDS011;49206;48.020;21.378;2022-12-18T05:02:03;70.18;;;28.65;;
63112;SDS011;49206;48.020;21.378;2022-12-18T05:03:06;68.43;;;28.02;;
63112;SDS011;49206;48.020;21.378;2022-12-18T05:04:08;69.05;;;29.35;;
63112;SDS011;49206;48.020;21.378;2022-12-18T05:05:11;72.90;;;29.40;;
63112;SDS011;49206;48.020;21.378;2022-12-18T05:06:14;82.57;;;33.40;;
63112;SDS011;49206;48.020;21.378;2022-12-18T05:07:17;71.63;;;29.27;;
63112;SDS011;49206;48.020;21.378;2022-12-18T05:08:19;75.45;;;31.83;;
63112;SDS011;49206;48.020;21.378;2022-12-18T05:09:22;68.97;;;26.73;;
63112;SDS011;49206;48.020;21.378;2022-12-18T05:10:24;75.68;;;32.75;;
63112;SDS011;49206;48.020;21.378;2022-12-18T05:11:28;73.32;;;29.95;;
63112;SDS011;49206;48.020;21.378;2022-12-18T05:12:31;71.72;;;29.75;;
63112;SDS011;49206;48.020;21.378;2022-12-18T05:13:35;72.38;;;30.30;;
63112;SDS011;49206;48.020;21.378;2022-12-18T05:14:40;74.60;;;31.27;;
63112;SDS011;49206;48.020;21.378;2022-12-18T05:15:42;69.70;;;30.35;;
63112;SDS011;49206;48.020;21.378;2022-12-18T05:16:56;69.28;;;29.95;;
63112;SDS011;49206;48.020;21.378;2022-12-18T05:18:02;70.40;;;29.80;;
63112;SDS011;49206;48.020;21.378;2022-12-18T05:19:05;70.95;;;30.20;;
63112;SDS011;49206;48.020;21.378;2022-12-18T05:20:09;71.93;;;30.20;;
63112;SDS011;49206;48.020;21.378;2022-12-18T05:21:12;77.07;;;31.77;;
63112;SDS011;49206;48.020;21.378;2022-12-18T05:22:14;72.43;;;30.02;;
63112;SDS011;49206;48.020;21.378;2022-12-18T05:23:18;70.43;;;30.45;;
63112;SDS011;49206;48.020;21.378;2022-12-18T05:24:22;74.78;;;30.05;;
63112;SDS011;49206;48.020;21.378;2022-12-18T05:25:24;76.68;;;30.63;;
63112;SDS011;49206;48.020;21.378;2022-12-18T05:26:27;75.97;;;28.27;;
63112;SDS011;49206;48.020;21.378;2022-12-18T05:27:29;76.85;;;29.48;;
63112;SDS011;49206;48.020;21.378;2022-12-18T05:28:33;83.38;;;32.95;;
63112;SDS011;49206;48.020;21.378;2022-12-18T05:29:36;71.28;;;27.95;;
63112;SDS011;49206;48.020;21.378;2022-12-18T05:30:39;72.38;;;28.15;;
63112;SDS011;49206;48.020;21.378;2022-12-18T05:31:44;72.97;;;28.50;;
63112;SDS011;49206;48.020;21.378;2022-12-18T05:32:46;77.75;;;30.00;;
63112;SDS011;49206;48.020;21.378;2022-12-18T05:33:49;68.28;;;28.92;;
63112;SDS011;49206;48.020;21.378;2022-12-18T05:34:52;75.30;;;29.45;;
63112;SDS011;49206;48.020;21.378;2022-12-18T05:35:55;73.50;;;28.08;;
63112;SDS011;49206;48.020;21.378;2022-12-18T05:37:00;70.00;;;27.25;;
63112;SDS011;49206;48.020;21.378;2022-12-18T05:38:02;70.40;;;28.13;;
63112;SDS011;49206;48.020;21.378;2022-12-18T05:39:05;69.18;;;27.98;;
63112;SDS011;49206;48.020;21.378;2022-12-18T05:40:08;70.47;;;27.58;;
63112;SDS011;49206;48.020;21.378;2022-12-18T05:41:11;70.57;;;28.90;;
63112;SDS011;49206;48.020;21.378;2022-12-18T05:42:14;66.53;;;25.63;;
63112;SDS011;49206;48.020;21.378;2022-12-18T05:43:17;72.70;;;27.58;;
63112;SDS011;49206;48.020;21.378;2022-12-18T05:44:23;77.15;;;28.00;;
63112;SDS011;49206;48.020;21.378;2022-12-18T05:45:26;64.88;;;27.55;;
63112;SDS011;49206;48.020;21.378;2022-12-18T05:46:28;70.72;;;27.63;;
63112;SDS011;49206;48.020;21.378;2022-12-18T05:47:31;74.47;;;28.67;;
63112;SDS011;49206;48.020;21.378;2022-12-18T05:48:34;77.50;;;31.13;;
63112;SDS011;49206;48.020;21.378;2022-12-18T05:49:37;77.57;;;27.80;;
63112;SDS011;49206;48.020;21.378;2022-12-18T05:50:40;77.00;;;29.10;;
63112;SDS011;49206;48.020;21.378;2022-12-18T05:51:44;79.40;;;29.75;;
63112;SDS011;49206;48.020;21.378;2022-12-18T05:52:48;76.00;;;31.55;;
63112;SDS011;49206;48.020;21.378;2022-12-18T05:53:51;85.00;;;32.10;;
63112;SDS011;49206;48.020;21.378;2022-12-18T05:54:53;102.22;;;38.75;;
63112;SDS011;49206;48.020;21.378;2022-12-18T05:55:59;102.35;;;44.17;;
63112;SDS011;49206;48.020;21.378;2022-12-18T05:57:02;107.88;;;43.60;;
63112;SDS011;49206;48.020;21.378;2022-12-18T05:58:06;104.85;;;43.60;;
63112;SDS011;49206;48.020;21.378;2022-12-18T05:59:09;107.40;;;43.15;;
63112;SDS011;49206;48.020;21.378;2022-12-18T06:00:16;96.20;;;40.95;;
63112;SDS011;49206;48.020;21.378;2022-12-18T06:01:20;91.32;;;36.92;;
63112;SDS011;49206;48.020;21.378;2022-12-18T06:02:28;94.15;;;40.80;;
63112;SDS011;49206;48.020;21.378;2022-12-18T06:03:31;92.70;;;38.47;;
63112;SDS011;49206;48.020;21.378;2022-12-18T06:04:35;84.05;;;36.17;;
63112;SDS011;49206;48.020;21.378;2022-12-18T06:05:39;73.68;;;32.03;;
63112;SDS011;49206;48.020;21.378;2022-12-18T06:06:46;77.38;;;31.33;;
63112;SDS011;49206;48.020;21.378;2022-12-18T06:07:48;77.53;;;32.95;;
63112;SDS011;49206;48.020;21.378;2022-12-18T06:08:56;84.38;;;31.60;;
63112;SDS011;49206;48.020;21.378;2022-12-18T06:09:59;74.45;;;30.05;;
63112;SDS011;49206;48.020;21.378;2022-12-18T06:11:01;81.68;;;33.78;;
63112;SDS011;49206;48.020;21.378;2022-12-18T06:12:05;72.47;;;31.63;;
63112;SDS011;49206;48.020;21.378;2022-12-18T06:13:10;79.63;;;33.75;;
63112;SDS011;49206;48.020;21.378;2022-12-18T06:14:15;82.13;;;31.20;;
63112;SDS011;49206;48.020;21.378;2022-12-18T06:15:19;107.70;;;40.72;;
63112;SDS011;49206;48.020;21.378;2022-12-18T06:16:24;119.75;;;45.83;;
63112;SDS011;49206;48.020;21.378;2022-12-18T06:17:30;140.13;;;50.97;;
63112;SDS011;49206;48.020;21.378;2022-12-18T06:18:37;121.32;;;45.40;;
63112;SDS011;49206;48.020;21.378;2022-12-18T06:19:41;116.43;;;42.80;;
63112;SDS011;49206;48.020;21.378;2022-12-18T06:20:43;101.88;;;38.17;;
63112;SDS011;49206;48.020;21.378;2022-12-18T06:21:46;98.57;;;38.65;;
63112;SDS011;49206;48.020;21.378;2022-12-18T06:22:49;83.93;;;35.50;;
63112;SDS011;49206;48.020;21.378;2022-12-18T06:23:51;100.07;;;39.00;;
63112;SDS011;49206;48.020;21.378;2022-12-18T06:24:53;99.75;;;41.22;;
63112;SDS011;49206;48.020;21.378;2022-12-18T06:25:56;90.15;;;34.55;;
63112;SDS011;49206;48.020;21.378;2022-12-18T06:26:59;97.78;;;39.10;;
63112;SDS011;49206;48.020;21.378;2022-12-18T06:28:01;98.63;;;37.42;;
63112;SDS011;49206;48.020;21.378;2022-12-18T06:29:06;97.95;;;38.45;;
63112;SDS011;49206;48.020;21.378;2022-12-18T06:30:08;102.43;;;39.35;;
63112;SDS011;49206;48.020;21.378;2022-12-18T06:31:11;122.35;;;48.22;;
63112;SDS011;49206;48.020;21.378;2022-12-18T06:32:14;121.75;;;48.20;;
63112;SDS011;49206;48.020;21.378;2022-12-18T06:33:17;109.72;;;43.85;;
63112;SDS011;49206;48.020;21.378;2022-12-18T06:34:19;99.82;;;38.53;;
63112;SDS011;49206;48.020;21.378;2022-12-18T06:35:23;104.80;;;42.83;;
63112;SDS011;49206;48.020;21.378;2022-12-18T06:36:26;101.63;;;43.67;;
63112;SDS011;49206;48.020;21.378;2022-12-18T06:37:30;100.18;;;42.75;;
63112;SDS011;49206;48.020;21.378;2022-12-18T06:39:37;79.63;;;33.33;;
63112;SDS011;49206;48.020;21.378;2022-12-18T06:40:40;82.18;;;31.58;;
63112;SDS011;49206;48.020;21.378;2022-12-18T06:41:42;83.13;;;35.78;;
63112;SDS011;49206;48.020;21.378;2022-12-18T06:42:45;83.53;;;34.45;;
63112;SDS011;49206;48.020;21.378;2022-12-18T06:43:47;93.50;;;35.13;;
63112;SDS011;49206;48.020;21.378;2022-12-18T06:44:54;148.30;;;53.95;;
63112;SDS011;49206;48.020;21.378;2022-12-18T06:46:13;166.20;;;55.03;;
63112;SDS011;49206;48.020;21.378;2022-12-18T06:47:17;189.05;;;63.38;;
63112;SDS011;49206;48.020;21.378;2022-12-18T06:48:20;157.07;;;53.78;;
63112;SDS011;49206;48.020;21.378;2022-12-18T06:49:23;127.70;;;45.25;;
63112;SDS011;49206;48.020;21.378;2022-12-18T06:50:31;110.03;;;40.50;;
63112;SDS011;49206;48.020;21.378;2022-12-18T06:51:34;83.30;;;31.33;;
63112;SDS011;49206;48.020;21.378;2022-12-18T06:52:40;95.95;;;37.15;;
63112;SDS011;49206;48.020;21.378;2022-12-18T06:53:42;78.35;;;32.33;;
63112;SDS011;49206;48.020;21.378;2022-12-18T06:54:45;77.28;;;31.35;;
63112;SDS011;49206;48.020;21.378;2022-12-18T06:55:47;78.97;;;31.98;;
63112;SDS011;49206;48.020;21.378;2022-12-18T06:56:51;83.75;;;29.63;;
63112;SDS011;49206;48.020;21.378;2022-12-18T06:57:53;83.15;;;30.50;;